Time;durP1;ratioP1;P1;durP2;ratioP2;P2;SDS_P1;SDS_P2;PMS_P1;PMS_P2;Temp;Humidity;BMP_temperature;BMP_pressure;BME280_temperature;BME280_humidity;BME280_pressure;Samples;Min_cycle;Max_cycle;Signal;HPM_P1;HPM_P2
2022/10/28 00:02:15;;;;;;;49.10;30.00;;;384.10;2329.60;;;;;;5089197;28;20027;-76
2022/10/28 00:04:40;;;;;;;48.42;29.33;;;384.20;2329.60;;;;;;5089297;28;20485;-77
2022/10/28 00:07:06;;;;;;;44.72;29.30;;;384.10;2329.60;;;;;;5089161;28;20040;-76
2022/10/28 00:09:32;;;;;;;48.40;27.40;;;384.00;2329.60;;;;;;5086011;28;20054;-77
2022/10/28 00:11:57;;;;;;;51.45;31.10;;;384.00;2329.60;;;;;;5087462;28;20036;-76
2022/10/28 00:14:23;;;;;;;43.80;29.58;;;384.00;2329.60;;;;;;5086127;28;20036;-76
2022/10/28 00:16:49;;;;;;;48.28;29.70;;;359.30;2329.60;;;;;;5090450;28;20020;-76
2022/10/28 00:19:15;;;;;;;49.22;30.15;;;359.20;2329.60;;;;;;5086007;28;20024;-76
2022/10/28 00:21:42;;;;;;;48.80;30.30;;;359.10;2329.60;;;;;;5088316;28;20047;-76
2022/10/28 00:24:10;;;;;;;47.30;30.60;;;359.10;2329.60;;;;;;5083201;28;20029;-76
2022/10/28 00:26:40;;;;;;;49.28;32.38;;;359.20;2329.60;;;;;;5089927;28;20444;-77
2022/10/28 00:29:11;;;;;;;51.72;32.40;;;359.10;2329.60;;;;;;5086187;28;20017;-77
2022/10/28 00:31:37;;;;;;;46.30;30.05;;;359.00;2329.60;;;;;;5088941;28;20046;-81
2022/10/28 00:34:06;;;;;;;47.75;31.67;;;359.10;2329.60;;;;;;5086003;28;20493;-77
2022/10/28 00:36:34;;;;;;;51.47;31.80;;;359.10;2329.60;;;;;;5088977;28;20024;-77
2022/10/28 00:39:01;;;;;;;54.78;31.42;;;359.10;2329.60;;;;;;5088792;28;20056;-76
2022/10/28 00:41:30;;;;;;;47.83;29.73;;;359.10;2329.60;;;;;;5085574;28;20078;-77
2022/10/28 00:44:02;;;;;;;53.45;30.63;;;359.20;2329.60;;;;;;5082763;28;20021;-76
2022/10/28 00:46:54;;;;;;;47.72;31.30;;;359.20;2329.60;;;;;;5085698;28;20028;-76
2022/10/28 00:49:29;;;;;;;54.28;34.22;;;359.20;2329.60;;;;;;5078568;28;20027;-81
2022/10/28 00:52:11;;;;;;;52.63;32.40;;;359.30;2329.60;;;;;;5088159;28;20066;-76
2022/10/28 00:54:38;;;;;;;46.65;30.88;;;359.30;2329.60;;;;;;5085999;28;20032;-77
2022/10/28 00:57:07;;;;;;;46.92;30.55;;;384.30;2329.60;;;;;;5089646;28;20032;-77
2022/10/28 00:59:36;;;;;;;51.83;33.78;;;359.20;2329.60;;;;;;5088550;28;20021;-77
2022/10/28 01:02:04;;;;;;;49.40;31.52;;;359.20;2329.60;;;;;;5083495;28;20029;-76
2022/10/28 01:04:30;;;;;;;52.10;32.95;;;359.20;2329.60;;;;;;5083086;28;20140;-80
2022/10/28 01:06:58;;;;;;;57.65;33.72;;;359.20;2329.60;;;;;;5087356;28;20069;-78
2022/10/28 01:09:24;;;;;;;52.63;33.55;;;359.20;2329.60;;;;;;5085353;28;20093;-77
2022/10/28 01:11:58;;;;;;;53.05;33.00;;;359.10;2329.60;;;;;;5084284;28;20036;-75
2022/10/28 01:14:39;;;;;;;49.33;31.90;;;359.00;2329.60;;;;;;5087219;28;20059;-77
2022/10/28 01:17:05;;;;;;;54.95;33.58;;;359.00;2329.60;;;;;;5088055;28;20123;-76
2022/10/28 01:19:55;;;;;;;56.67;32.88;;;359.00;2329.60;;;;;;5088567;28;20104;-77
2022/10/28 01:23:08;;;;;;;52.55;33.00;;;359.00;2329.60;;;;;;5091969;28;20068;-76
2022/10/28 01:25:58;;;;;;;52.97;32.92;;;359.00;2329.60;;;;;;4991849;28;20033;-76
2022/10/28 01:28:26;;;;;;;49.50;33.20;;;359.00;2329.60;;;;;;4979663;28;20057;-81
2022/10/28 01:31:19;;;;;;;52.88;34.22;;;359.00;2329.60;;;;;;4978812;28;20050;-76
2022/10/28 01:33:51;;;;;;;48.20;33.55;;;359.00;2329.60;;;;;;4994677;28;20030;-79
2022/10/28 01:36:55;;;;;;;54.05;32.25;;;359.00;2329.60;;;;;;4998001;28;20113;-76
2022/10/28 01:39:36;;;;;;;50.88;32.72;;;358.90;2329.60;;;;;;4959505;28;20037;-76
2022/10/28 01:42:30;;;;;;;49.45;31.27;;;358.90;2329.60;;;;;;4955280;28;20509;-77
2022/10/28 01:45:26;;;;;;;40.80;29.25;;;358.90;2329.60;;;;;;4938292;28;20292;-80
2022/10/28 01:47:58;;;;;;;48.28;29.25;;;358.90;2329.60;;;;;;4955895;28;20586;-77
2022/10/28 01:50:52;;;;;;;48.92;30.25;;;358.80;2329.60;;;;;;4964260;28;20035;-77
2022/10/28 01:53:23;;;;;;;46.35;31.13;;;358.80;2329.60;;;;;;4935862;28;20039;-76
2022/10/28 01:55:54;;;;;;;42.60;28.55;;;358.90;2329.60;;;;;;4943627;28;20143;-76
2022/10/28 01:58:26;;;;;;;44.85;28.15;;;358.80;2329.60;;;;;;4941221;28;20031;-77
2022/10/28 02:00:52;;;;;;;43.78;28.05;;;358.80;2329.60;;;;;;4961361;28;20124;-77
2022/10/28 02:03:18;;;;;;;42.92;28.52;;;358.80;2329.60;;;;;;5066656;28;20033;-78
2022/10/28 02:05:45;;;;;;;44.28;28.85;;;358.70;2329.60;;;;;;5062413;28;20492;-77
2022/10/28 02:08:16;;;;;;;43.47;29.15;;;358.50;2329.60;;;;;;5045413;28;20028;-77
2022/10/28 02:11:05;;;;;;;47.50;29.60;;;358.50;2329.60;;;;;;5025523;28;20086;-80
2022/10/28 02:13:36;;;;;;;45.92;29.40;;;358.40;2329.60;;;;;;5046535;28;20577;-77
2022/10/28 02:16:15;;;;;;;46.58;28.98;;;333.70;2329.60;;;;;;5034871;28;20025;-77
2022/10/28 02:18:52;;;;;;;52.88;31.15;;;358.40;2329.60;;;;;;5097505;28;20023;-77
2022/10/28 02:21:51;;;;;;;54.53;32.53;;;358.40;2329.60;;;;;;5078446;28;20047;-77
2022/10/28 02:24:37;;;;;;;53.83;32.03;;;358.40;2329.60;;;;;;5077511;28;20111;-78
2022/10/28 02:27:17;;;;;;;58.22;32.90;;;358.40;2329.60;;;;;;5072681;28;20029;-77
2022/10/28 02:30:01;;;;;;;56.72;34.17;;;358.40;2329.60;;;;;;5074508;28;20111;-78
2022/10/28 02:32:30;;;;;;;54.30;33.05;;;358.50;2329.60;;;;;;5094973;28;20493;-77
2022/10/28 02:34:59;;;;;;;53.70;33.22;;;358.50;2329.60;;;;;;5080295;28;20493;-78
2022/10/28 02:37:37;;;;;;;57.83;35.17;;;358.50;2329.60;;;;;;5075068;28;20031;-81
2022/10/28 02:40:08;;;;;;;57.60;33.38;;;358.50;2329.60;;;;;;5074761;28;20020;-81
2022/10/28 02:42:37;;;;;;;54.55;34.75;;;358.50;2329.60;;;;;;5074949;28;20112;-77
2022/10/28 02:45:25;;;;;;;57.55;34.30;;;358.50;2329.60;;;;;;5074906;28;20081;-80
2022/10/28 02:47:58;;;;;;;56.20;33.97;;;358.50;2329.60;;;;;;5086832;28;20023;-77
2022/10/28 02:50:38;;;;;;;53.55;33.00;;;358.50;2329.60;;;;;;5076937;28;20398;-77
2022/10/28 02:53:12;;;;;;;52.13;33.80;;;358.50;2329.60;;;;;;5094264;28;20492;-77
2022/10/28 02:55:42;;;;;;;59.25;35.53;;;358.50;2329.60;;;;;;5085699;28;20119;-77
2022/10/28 02:58:09;;;;;;;52.10;32.88;;;358.40;2329.60;;;;;;5076117;28;20020;-79
2022/10/28 03:00:35;;;;;;;96.47;34.65;;;333.70;2329.60;;;;;;5077193;28;20426;-78
2022/10/28 03:03:02;;;;;;;62.20;32.50;;;333.70;2329.60;;;;;;5077268;28;20055;-78
2022/10/28 03:05:28;;;;;;;48.85;30.23;;;333.70;2329.60;;;;;;5078756;28;20020;-78
2022/10/28 03:07:53;;;;;;;49.30;30.52;;;333.70;2329.60;;;;;;5078076;28;20035;-77
2022/10/28 03:10:19;;;;;;;57.55;31.00;;;333.50;2329.60;;;;;;5076251;28;20056;-76
2022/10/28 03:12:45;;;;;;;51.35;28.65;;;333.50;2329.60;;;;;;5076523;28;20036;-77
2022/10/28 03:15:11;;;;;;;40.58;27.23;;;333.50;2329.60;;;;;;5073712;28;20111;-78
2022/10/28 03:17:36;;;;;;;38.90;28.50;;;333.40;2329.60;;;;;;5101907;28;20055;-78
2022/10/28 03:20:02;;;;;;;52.05;27.75;;;333.40;2329.60;;;;;;5071001;28;20031;-77
2022/10/28 03:22:28;;;;;;;59.53;27.85;;;333.40;2329.60;;;;;;5076060;28;20056;-78
2022/10/28 03:24:54;;;;;;;38.30;24.77;;;333.30;2329.60;;;;;;5095974;28;20056;-78
2022/10/28 03:27:20;;;;;;;37.92;25.17;;;333.30;2329.60;;;;;;5099024;28;20033;-78
2022/10/28 03:29:45;;;;;;;40.83;25.35;;;333.20;2329.60;;;;;;5072110;28;20021;-77
2022/10/28 03:32:11;;;;;;;29.45;23.55;;;333.10;2329.60;;;;;;5070519;28;20040;-77
2022/10/28 03:34:37;;;;;;;33.60;24.42;;;333.10;2329.60;;;;;;5096348;28;20020;-77
2022/10/28 03:37:02;;;;;;;30.27;24.02;;;333.00;2329.60;;;;;;5075793;28;20170;-77
2022/10/28 03:39:28;;;;;;;30.80;23.55;;;332.90;2329.60;;;;;;5079217;28;20488;-78
2022/10/28 03:41:54;;;;;;;38.63;25.90;;;332.90;2329.60;;;;;;5081265;28;20036;-77
2022/10/28 03:44:19;;;;;;;35.65;23.63;;;332.90;2329.60;;;;;;5073428;28;20035;-78
2022/10/28 03:46:45;;;;;;;32.60;24.33;;;332.90;2329.60;;;;;;5075857;28;20497;-78
2022/10/28 03:49:11;;;;;;;33.58;25.13;;;332.80;2329.60;;;;;;5077508;28;20059;-78
2022/10/28 03:51:36;;;;;;;38.17;25.98;;;308.10;2304.00;;;;;;5074245;28;20029;-77
2022/10/28 03:54:02;;;;;;;32.20;25.17;;;308.10;2304.00;;;;;;5076233;28;20496;-77
2022/10/28 03:56:28;;;;;;;41.65;26.60;;;308.10;2304.00;;;;;;5078235;28;20020;-76
2022/10/28 03:58:54;;;;;;;47.42;26.75;;;308.00;2304.00;;;;;;5076871;28;20035;-77
2022/10/28 04:01:19;;;;;;;42.10;26.63;;;307.90;2304.00;;;;;;5074105;28;20094;-78
2022/10/28 04:03:45;;;;;;;41.42;27.40;;;307.90;2304.00;;;;;;5079103;28;20047;-78
2022/10/28 04:06:11;;;;;;;48.45;25.90;;;307.90;2304.00;;;;;;5072348;28;20437;-79
2022/10/28 04:08:37;;;;;;;49.00;27.67;;;307.90;2304.00;;;;;;5075825;28;20028;-81
2022/10/28 04:11:03;;;;;;;49.92;27.40;;;307.80;2304.00;;;;;;5078920;28;20016;-77
2022/10/28 04:13:29;;;;;;;45.85;28.70;;;307.70;2304.00;;;;;;5072515;28;20366;-78
2022/10/28 04:15:55;;;;;;;39.28;26.77;;;307.60;2304.00;;;;;;5077810;28;20434;-77
2022/10/28 04:18:21;;;;;;;45.17;27.58;;;307.70;2304.00;;;;;;5076368;28;20029;-77
2022/10/28 04:20:46;;;;;;;37.30;26.50;;;307.60;2304.00;;;;;;5078391;28;20032;-78
2022/10/28 04:23:14;;;;;;;37.65;26.38;;;307.60;2304.00;;;;;;5073974;28;20040;-77
2022/10/28 04:25:40;;;;;;;34.47;25.02;;;307.60;2304.00;;;;;;5082353;28;20091;-81
2022/10/28 04:28:06;;;;;;;35.20;25.95;;;307.60;2304.00;;;;;;5078459;28;20099;-81
2022/10/28 04:30:32;;;;;;;40.85;25.67;;;307.60;2304.00;;;;;;5074257;28;20031;-78
2022/10/28 04:32:57;;;;;;;32.58;23.60;;;307.50;2304.00;;;;;;5073640;28;20255;-78
2022/10/28 04:35:23;;;;;;;47.72;25.02;;;307.60;2304.00;;;;;;5073304;28;20487;-79
2022/10/28 04:37:49;;;;;;;36.03;24.75;;;307.50;2304.00;;;;;;5075778;28;20025;-79
2022/10/28 04:40:15;;;;;;;35.67;24.48;;;307.50;2304.00;;;;;;5069511;28;20481;-76
2022/10/28 04:42:41;;;;;;;34.72;23.40;;;307.50;2304.00;;;;;;5075346;28;20123;-76
2022/10/28 04:45:07;;;;;;;40.47;24.45;;;307.50;2304.00;;;;;;5072240;28;20028;-76
2022/10/28 04:47:33;;;;;;;33.50;24.20;;;307.50;2304.00;;;;;;5076920;28;20018;-76
2022/10/28 04:49:58;;;;;;;30.98;23.15;;;307.50;2304.00;;;;;;5069749;28;20024;-76
2022/10/28 04:52:24;;;;;;;56.95;27.42;;;307.40;2304.00;;;;;;5074792;28;20080;-76
2022/10/28 04:54:50;;;;;;;53.85;30.98;;;307.40;2304.00;;;;;;5073999;28;20028;-75
2022/10/28 04:57:16;;;;;;;36.33;24.10;;;307.50;2304.00;;;;;;5080431;28;20031;-76
2022/10/28 04:59:41;;;;;;;37.08;29.02;;;307.40;2304.00;;;;;;5099034;28;20032;-76
2022/10/28 05:02:07;;;;;;;32.72;22.50;;;307.30;2304.00;;;;;;5075666;28;20504;-76
2022/10/28 05:04:33;;;;;;;47.45;22.90;;;307.30;2304.00;;;;;;5081829;28;20054;-77
2022/10/28 05:06:58;;;;;;;71.13;23.73;;;307.40;2304.00;;;;;;5098723;28;20369;-76
2022/10/28 05:09:24;;;;;;;30.33;21.42;;;307.30;2304.00;;;;;;5073287;28;20042;-81
2022/10/28 05:11:50;;;;;;;55.03;23.25;;;307.40;2304.00;;;;;;5082058;28;20049;-76
2022/10/28 05:14:16;;;;;;;31.38;21.35;;;307.30;2304.00;;;;;;5088084;28;20024;-76
2022/10/28 05:16:42;;;;;;;62.70;23.02;;;307.30;2304.00;;;;;;5082862;28;20127;-76
2022/10/28 05:19:08;;;;;;;43.22;22.45;;;307.20;2304.00;;;;;;5075811;28;20064;-76
2022/10/28 05:21:33;;;;;;;38.08;21.92;;;307.20;2304.00;;;;;;5079355;28;20048;-77
2022/10/28 05:23:59;;;;;;;41.97;22.75;;;282.50;2278.40;;;;;;5078716;28;20029;-77
2022/10/28 05:26:25;;;;;;;44.05;22.38;;;307.20;2304.00;;;;;;5076139;28;20039;-78
2022/10/28 05:28:50;;;;;;;58.33;22.58;;;282.50;2278.40;;;;;;5081324;28;20048;-78
2022/10/28 05:31:17;;;;;;;56.35;23.05;;;307.30;2304.00;;;;;;5101359;28;20366;-77
2022/10/28 05:33:43;;;;;;;37.42;22.63;;;307.20;2304.00;;;;;;5075455;28;20044;-77
2022/10/28 05:36:09;;;;;;;42.00;22.25;;;307.30;2304.00;;;;;;5083893;28;20496;-77
2022/10/28 05:38:34;;;;;;;59.25;25.42;;;307.30;2304.00;;;;;;5081748;28;20036;-77
2022/10/28 05:41:00;;;;;;;64.18;23.13;;;307.30;2304.00;;;;;;5084518;28;20016;-79
2022/10/28 05:43:26;;;;;;;51.53;24.58;;;307.30;2304.00;;;;;;5084752;28;20023;-81
2022/10/28 05:45:56;;;;;;;34.35;23.48;;;307.30;2304.00;;;;;;5075395;28;20028;-80
2022/10/28 05:48:23;;;;;;;30.15;21.33;;;307.40;2304.00;;;;;;5092880;28;20543;-81
2022/10/28 05:50:49;;;;;;;43.08;22.08;;;307.40;2304.00;;;;;;5080189;28;20036;-77
2022/10/28 05:53:15;;;;;;;51.17;23.70;;;307.50;2304.00;;;;;;5090332;28;20131;-78
2022/10/28 05:55:41;;;;;;;31.80;22.33;;;307.50;2304.00;;;;;;5077933;28;20032;-81
2022/10/28 05:58:06;;;;;;;44.15;22.33;;;307.60;2304.00;;;;;;5094319;28;20534;-83
2022/10/28 06:00:32;;;;;;;67.05;23.42;;;307.50;2304.00;;;;;;5093959;28;20020;-80
2022/10/28 06:03:08;;;;;;;39.65;21.48;;;307.50;2304.00;;;;;;5094039;28;20067;-80
2022/10/28 06:05:35;;;;;;;;;;;307.60;2304.00;;;;;;5093654;28;20443;-80
2022/10/28 06:08:02;;;;;;;86.53;23.35;;;307.60;2304.00;;;;;;5094246;28;20016;-80
2022/10/28 06:10:28;;;;;;;53.03;22.40;;;307.60;2304.00;;;;;;5093274;28;20032;-77
2022/10/28 06:12:55;;;;;;;71.32;23.52;;;307.60;2304.00;;;;;;5093416;28;20047;-81
2022/10/28 06:15:20;;;;;;;58.05;28.52;;;307.60;2304.00;;;;;;5093704;28;20124;-79
2022/10/28 06:17:48;;;;;;;60.25;24.42;;;307.60;2304.00;;;;;;5093268;28;20028;-80
2022/10/28 06:20:14;;;;;;;36.25;24.10;;;307.70;2304.00;;;;;;5093653;28;20115;-80
2022/10/28 06:37:09;;;;;;;68.50;25.48;;;307.60;2304.00;;;;;;5108206;27;20768;-79
2022/10/28 06:39:36;;;;;;;36.03;24.10;;;333.00;2329.60;;;;;;5090354;28;20605;-79
2022/10/28 06:42:02;;;;;;;50.20;25.65;;;332.90;2329.60;;;;;;5088602;28;20038;-79
2022/10/28 06:44:28;;;;;;;35.65;24.17;;;332.80;2329.60;;;;;;5090078;28;20016;-79
2022/10/28 06:46:54;;;;;;;50.20;27.58;;;332.80;2329.60;;;;;;5089872;28;20479;-79
2022/10/28 06:49:20;;;;;;;40.08;28.48;;;308.10;2304.00;;;;;;5088864;28;20114;-79
2022/10/28 06:51:46;;;;;;;45.80;26.50;;;308.10;2304.00;;;;;;5088964;28;20067;-80
2022/10/28 06:54:11;;;;;;;39.95;25.63;;;308.10;2304.00;;;;;;5090237;28;20027;-79
2022/10/28 06:56:37;;;;;;;47.38;26.42;;;308.00;2304.00;;;;;;5090220;28;20036;-80
2022/10/28 06:59:03;;;;;;;41.90;27.77;;;308.10;2304.00;;;;;;5088861;28;20021;-79
2022/10/28 07:01:28;;;;;;;36.20;24.70;;;332.80;2329.60;;;;;;5089497;28;20036;-81
2022/10/28 07:03:54;;;;;;;31.67;23.92;;;332.80;2329.60;;;;;;5088084;28;20032;-79
2022/10/28 07:06:20;;;;;;;34.50;24.17;;;332.80;2329.60;;;;;;5092985;28;20024;-80
2022/10/28 07:08:45;;;;;;;34.80;22.50;;;332.80;2329.60;;;;;;5100490;28;20023;-81
2022/10/28 07:11:11;;;;;;;41.78;22.17;;;332.90;2329.60;;;;;;5103376;28;20024;-80
2022/10/28 07:13:37;;;;;;;42.92;22.55;;;332.80;2329.60;;;;;;5088861;28;20475;-80
2022/10/28 07:16:04;;;;;;;32.42;23.58;;;332.80;2329.60;;;;;;5088727;28;20059;-79
2022/10/28 07:18:30;;;;;;;51.33;23.15;;;332.90;2329.60;;;;;;5088005;28;20029;-80
2022/10/28 07:21:00;;;;;;;47.95;22.58;;;332.90;2329.60;;;;;;5088144;28;20056;-82
2022/10/28 07:23:26;;;;;;;57.63;23.77;;;332.90;2329.60;;;;;;5087504;28;20023;-80
2022/10/28 07:25:55;;;;;;;33.45;21.98;;;332.90;2329.60;;;;;;5087362;28;20027;-78
2022/10/28 07:28:23;;;;;;;39.85;22.42;;;333.00;2329.60;;;;;;5081159;28;20025;-80
2022/10/28 07:30:49;;;;;;;54.03;24.15;;;333.00;2329.60;;;;;;5087035;28;20120;-78
2022/10/28 07:33:15;;;;;;;30.10;21.90;;;333.00;2329.60;;;;;;5087347;28;20483;-78
2022/10/28 07:35:41;;;;;;;27.27;20.65;;;333.10;2329.60;;;;;;5086572;28;20044;-78
2022/10/28 07:38:08;;;;;;;34.10;24.08;;;333.20;2329.60;;;;;;5087705;28;20029;-78
2022/10/28 07:40:33;;;;;;;32.17;21.98;;;333.30;2329.60;;;;;;5087716;28;20020;-79
2022/10/28 07:42:59;;;;;;;38.75;21.67;;;333.30;2329.60;;;;;;5087639;28;20073;-79
2022/10/28 07:45:25;;;;;;;34.45;20.83;;;333.30;2329.60;;;;;;5086802;28;20107;-79
2022/10/28 07:47:51;;;;;;;30.27;20.25;;;333.20;2329.60;;;;;;5077359;28;20479;-79
2022/10/28 07:50:17;;;;;;;28.42;21.08;;;333.10;2329.60;;;;;;5073849;28;20418;-81
2022/10/28 07:52:43;;;;;;;60.90;22.88;;;333.20;2329.60;;;;;;5074043;28;20027;-81
2022/10/28 07:55:10;;;;;;;32.85;22.27;;;333.30;2329.60;;;;;;5073328;28;20037;-81
2022/10/28 07:57:35;;;;;;;35.75;21.85;;;333.40;2329.60;;;;;;5073367;28;20028;-80
2022/10/28 08:00:04;;;;;;;37.88;23.95;;;333.40;2329.60;;;;;;5073763;28;20487;-80
2022/10/28 08:02:29;;;;;;;31.52;23.02;;;333.40;2329.60;;;;;;5072899;28;20025;-79
2022/10/28 08:04:55;;;;;;;37.95;22.17;;;333.30;2329.60;;;;;;5072769;28;20436;-79
2022/10/28 08:07:22;;;;;;;30.73;22.98;;;333.30;2329.60;;;;;;5073783;28;20055;-79
2022/10/28 08:09:47;;;;;;;36.70;24.75;;;333.30;2329.60;;;;;;5074135;28;20461;-80
2022/10/28 08:12:14;;;;;;;85.80;44.25;;;333.50;2329.60;;;;;;5073680;28;20032;-79
2022/10/28 08:14:40;;;;;;;36.92;24.75;;;333.50;2329.60;;;;;;5073691;28;20049;-79
2022/10/28 08:17:06;;;;;;;32.92;22.65;;;333.60;2329.60;;;;;;5075045;28;20029;-78
2022/10/28 08:19:32;;;;;;;41.70;22.80;;;333.70;2329.60;;;;;;5073811;28;20037;-80
2022/10/28 08:21:58;;;;;;;30.48;22.17;;;333.70;2329.60;;;;;;5073755;28;20031;-79
2022/10/28 08:24:23;;;;;;;35.83;22.80;;;333.70;2329.60;;;;;;5073707;28;20021;-80
2022/10/28 08:26:49;;;;;;;33.50;22.38;;;333.70;2329.60;;;;;;5073567;28;20035;-80
2022/10/28 08:29:15;;;;;;;32.63;23.33;;;358.40;2329.60;;;;;;5072935;28;20056;-80
2022/10/28 08:31:41;;;;;;;29.83;22.00;;;358.50;2329.60;;;;;;5073381;28;20375;-80
2022/10/28 08:34:07;;;;;;;29.52;21.58;;;358.50;2329.60;;;;;;5073661;28;20047;-84
2022/10/28 08:36:33;;;;;;;37.22;24.02;;;358.40;2329.60;;;;;;5073562;28;20044;-81
2022/10/28 08:39:00;;;;;;;32.45;22.65;;;358.40;2329.60;;;;;;5073965;28;20094;-80
2022/10/28 08:41:35;;;;;;;32.13;23.77;;;358.50;2329.60;;;;;;5074073;28;20024;-82
2022/10/28 08:44:04;;;;;;;31.67;24.10;;;358.60;2329.60;;;;;;5073382;28;20058;-81
2022/10/28 08:46:43;;;;;;;38.35;25.35;;;358.50;2329.60;;;;;;5073331;28;20032;-83
2022/10/28 08:49:15;;;;;;;32.30;23.95;;;358.60;2329.60;;;;;;5073606;28;20101;-80
2022/10/28 08:52:23;;;;;;;33.45;24.67;;;358.60;2329.60;;;;;;5072956;28;20116;-81
2022/10/28 08:55:22;;;;;;;36.10;25.65;;;358.70;2329.60;;;;;;5037769;28;20151;-85
2022/10/28 08:58:06;;;;;;;35.13;24.48;;;358.60;2329.60;;;;;;5070369;28;20061;-80
2022/10/28 09:00:33;;;;;;;33.90;24.92;;;358.70;2329.60;;;;;;5072622;28;20484;-79
2022/10/28 09:03:11;;;;;;;36.13;25.02;;;358.70;2329.60;;;;;;5072418;28;20032;-82
2022/10/28 09:05:38;;;;;;;34.17;25.83;;;358.80;2329.60;;;;;;5073568;28;20784;-77
2022/10/28 09:08:05;;;;;;;36.00;26.20;;;358.90;2329.60;;;;;;5071831;28;20043;-80
2022/10/28 09:10:37;;;;;;;36.88;26.30;;;358.80;2329.60;;;;;;5071630;28;20020;-79
2022/10/28 09:13:13;;;;;;;39.70;26.75;;;358.90;2329.60;;;;;;5071964;28;20836;-79
2022/10/28 09:16:07;;;;;;;34.67;25.60;;;359.00;2329.60;;;;;;5072025;28;20037;-78
2022/10/28 09:18:45;;;;;;;44.55;27.20;;;359.00;2329.60;;;;;;4995233;28;20544;-80
2022/10/28 09:21:30;;;;;;;36.67;25.33;;;359.00;2329.60;;;;;;5008517;28;20042;-78
2022/10/28 09:23:59;;;;;;;38.42;26.25;;;359.20;2329.60;;;;;;4984455;28;20042;-83
2022/10/28 09:26:45;;;;;;;35.58;26.13;;;359.20;2329.60;;;;;;4995342;28;20026;-77
2022/10/28 09:29:24;;;;;;;39.47;26.45;;;384.00;2329.60;;;;;;4995033;28;20104;-77
2022/10/28 09:31:57;;;;;;;37.75;26.50;;;384.10;2329.60;;;;;;5011812;28;20018;-79
2022/10/28 09:34:54;;;;;;;34.83;26.83;;;384.10;2329.60;;;;;;4995300;28;20609;-80
2022/10/28 09:37:28;;;;;;;36.73;25.90;;;384.30;2329.60;;;;;;5011643;28;20057;-78
2022/10/28 09:40:00;;;;;;;33.45;26.33;;;384.30;2329.60;;;;;;5011420;28;20342;-79
2022/10/28 09:42:38;;;;;;;39.75;26.75;;;384.40;2329.60;;;;;;4994884;28;20506;-78
2022/10/28 09:45:16;;;;;;;37.90;27.00;;;384.50;2329.60;;;;;;5011034;28;20490;-77
2022/10/28 09:47:46;;;;;;;36.10;26.40;;;384.70;2329.60;;;;;;4994266;28;20037;-78
2022/10/28 09:50:19;;;;;;;36.47;27.52;;;384.60;2329.60;;;;;;4994497;28;20033;-77
2022/10/28 09:53:10;;;;;;;39.50;27.60;;;384.60;2329.60;;;;;;4994473;28;20041;-77
2022/10/28 09:55:35;;;;;;;35.83;26.90;;;384.60;2329.60;;;;;;5039630;28;20036;-80
2022/10/28 09:58:04;;;;;;;35.90;26.88;;;384.70;2329.60;;;;;;5071246;28;20169;-78
2022/10/28 10:00:30;;;;;;;39.15;27.67;;;384.90;2329.60;;;;;;5071289;28;20020;-77
2022/10/28 10:02:57;;;;;;;40.17;28.15;;;384.70;2329.60;;;;;;5071430;28;20110;-76
2022/10/28 10:05:24;;;;;;;41.78;29.00;;;384.90;2329.60;;;;;;5071110;28;20021;-77
2022/10/28 10:07:52;;;;;;;34.15;26.50;;;409.60;2355.20;;;;;;5072770;28;20507;-76
2022/10/28 10:10:25;;;;;;;41.90;29.05;;;409.90;2355.20;;;;;;5070949;28;20041;-77
2022/10/28 10:12:55;;;;;;;43.10;28.02;;;410.00;2355.20;;;;;;5072384;28;20032;-80
2022/10/28 10:15:42;;;;;;;41.05;27.40;;;410.40;2355.20;;;;;;5071310;28;20050;-77
2022/10/28 10:18:15;;;;;;;36.08;27.45;;;435.20;2355.20;;;;;;5071324;28;20048;-80
2022/10/28 10:31:26;;;;;;;38.15;25.45;;;435.60;2355.20;;;;;;5131183;27;20411;-78
2022/10/28 10:33:56;;;;;;;37.83;25.30;;;486.80;2380.80;;;;;;5125190;28;20062;-81
2022/10/28 10:36:27;;;;;;;32.30;25.25;;;487.00;2380.80;;;;;;5108749;28;20089;-80
2022/10/28 10:38:54;;;;;;;33.03;24.33;;;487.20;2380.80;;;;;;5143069;27;20040;-79
2022/10/28 10:41:40;;;;;;;32.67;23.40;;;487.30;2380.80;;;;;;5123137;28;20037;-80
2022/10/28 10:44:21;;;;;;;33.97;24.83;;;487.30;2380.80;;;;;;5152446;27;20500;-79
2022/10/28 10:47:07;;;;;;;37.08;24.38;;;512.20;2380.80;;;;;;5119857;28;20486;-80
2022/10/28 10:49:34;;;;;;;33.08;25.23;;;512.50;2380.80;;;;;;5113326;28;20115;-82
2022/10/28 10:52:03;;;;;;;36.45;23.27;;;512.80;2380.80;;;;;;5149042;27;20122;-80
2022/10/28 10:54:33;;;;;;;38.25;25.10;;;537.60;2406.40;;;;;;5150315;27;20144;-80
2022/10/28 10:57:16;;;;;;;36.67;24.17;;;537.70;2406.40;;;;;;5113947;28;20492;-80
2022/10/28 10:59:45;;;;;;;35.83;24.40;;;537.90;2406.40;;;;;;5111414;28;20080;-80
2022/10/28 11:02:29;;;;;;;33.90;24.38;;;538.00;2406.40;;;;;;5148112;27;20040;-82
2022/10/28 11:04:59;;;;;;;35.70;23.40;;;538.10;2406.40;;;;;;5129752;27;20019;-78
2022/10/28 11:07:27;;;;;;;33.72;23.38;;;538.30;2406.40;;;;;;5108251;28;20038;-79
2022/10/28 11:09:53;;;;;;;34.63;24.25;;;538.50;2406.40;;;;;;5109160;28;20028;-80
2022/10/28 11:12:30;;;;;;;34.00;25.92;;;538.50;2406.40;;;;;;5109006;28;20099;-79
2022/10/28 11:15:01;;;;;;;33.50;25.33;;;563.20;2432.00;;;;;;5142634;27;20052;-79
2022/10/28 11:17:36;;;;;;;34.90;25.52;;;563.20;2432.00;;;;;;5141908;27;20020;-82
2022/10/28 11:20:23;;;;;;;33.28;23.75;;;563.30;2432.00;;;;;;5109032;28;20130;-79
2022/10/28 11:23:12;;;;;;;29.35;22.52;;;563.50;2432.00;;;;;;5152931;27;20031;-79
2022/10/28 11:25:44;;;;;;;29.92;23.75;;;563.40;2432.00;;;;;;5054798;28;20033;-78
2022/10/28 11:28:28;;;;;;;29.83;22.88;;;563.60;2432.00;;;;;;5085637;28;20032;-79
2022/10/28 11:31:14;;;;;;;31.65;23.15;;;563.60;2432.00;;;;;;5060737;28;20126;-78
2022/10/28 11:34:35;;;;;;;26.65;21.45;;;563.60;2432.00;;;;;;5070709;28;20060;-84
2022/10/28 11:49:29;;;;;;;28.95;24.00;;;563.60;2432.00;;;;;;5148390;27;20387;-79
2022/10/28 11:52:04;;;;;;;32.63;22.25;;;588.90;2432.00;;;;;;5120872;27;20065;-79
2022/10/28 11:54:55;;;;;;;31.65;21.52;;;588.80;2432.00;;;;;;5135383;27;20027;-81
2022/10/28 11:58:14;;;;;;;27.95;21.63;;;564.10;2432.00;;;;;;5151117;27;20034;-81
2022/10/28 12:00:59;;;;;;;39.10;22.35;;;563.90;2432.00;;;;;;5128033;28;20035;-78
2022/10/28 12:04:00;;;;;;;30.25;22.23;;;563.90;2432.00;;;;;;5128412;28;20120;-78
2022/10/28 12:06:46;;;;;;;33.45;22.27;;;563.80;2432.00;;;;;;5128382;28;20034;-78
2022/10/28 12:09:17;;;;;;;30.70;23.10;;;563.80;2432.00;;;;;;5127602;28;20136;-78
2022/10/28 12:25:29;;;;;;;34.15;23.83;;;563.70;2432.00;;;;;;5119179;27;20377;-79
2022/10/28 12:28:00;;;;;;;30.05;23.67;;;564.00;2432.00;;;;;;5120180;28;20077;-78
2022/10/28 12:30:32;;;;;;;32.78;23.90;;;563.90;2432.00;;;;;;5109504;28;20058;-79
2022/10/28 12:33:29;;;;;;;30.23;23.70;;;563.60;2432.00;;;;;;5109743;28;20149;-79
2022/10/28 12:36:38;;;;;;;28.58;23.38;;;563.60;2432.00;;;;;;5120428;28;20036;-79
2022/10/28 12:39:27;;;;;;;35.00;23.60;;;563.40;2432.00;;;;;;5059018;28;20029;-79
2022/10/28 12:41:59;;;;;;;36.35;24.45;;;563.30;2432.00;;;;;;5059212;28;20047;-79
2022/10/28 12:44:27;;;;;;;36.50;25.48;;;563.30;2432.00;;;;;;5078052;28;20151;-79
2022/10/28 12:47:15;;;;;;;34.90;25.02;;;563.20;2432.00;;;;;;5050567;28;20128;-76
2022/10/28 12:49:43;;;;;;;28.50;22.58;;;538.50;2406.40;;;;;;5049392;28;20032;-77
2022/10/28 12:52:32;;;;;;;31.20;23.38;;;538.50;2406.40;;;;;;5072879;28;20025;-76
2022/10/28 13:13:24;;;;;;;31.95;24.10;;;537.90;2406.40;;;;;;5122641;27;20387;-75
2022/10/28 13:15:49;;;;;;;;;;;538.40;2406.40;;;;;;5090302;28;20029;-76
2022/10/28 13:18:39;;;;;;;49.30;28.03;;;538.20;2406.40;;;;;;5087157;28;19910;-75
2022/10/28 13:21:31;;;;;;;30.50;23.35;;;538.00;2406.40;;;;;;5087126;28;20032;-75
2022/10/28 13:24:30;;;;;;;37.03;24.98;;;537.90;2406.40;;;;;;5086093;28;20134;-78
2022/10/28 13:26:56;;;;;;;36.97;24.58;;;537.70;2406.40;;;;;;5088029;28;20068;-78
2022/10/28 13:29:29;;;;;;;33.38;24.38;;;537.70;2406.40;;;;;;5095095;28;20024;-78
2022/10/28 13:31:55;;;;;;;29.15;23.20;;;537.60;2406.40;;;;;;5078917;28;20028;-79